Terminal Aerodrome Forecast
Issued by NWS Louisville, KY

Home | Current Version | Previous Version | Text Only | Print | Product List | Glossary On
Versions: 1 2 3 4 5 6 7 8 9 10 11 12
000
FTUS43 KLMK 252320
TAFLEX
TAF
KLEX 252320Z 2600/2624 22008KT P6SM SCT050 OVC150
     FM260600 18008KT P6SM OVC100
     FM261300 21012G17KT P6SM BKN050=

USA.gov is the U.S. government's official web portal to all federal, state and local government web resources and services.